Terminal Aerodrome Forecast
Issued by NWS Upton, NY

Home | Current Version | Previous Version | Text Only | Print | Product List | Glossary On
Versions: 1 2 3 4 5 6 7 8 9 10 11 12 13 14 15 16 17 18 19 20 21 22 23 24 25 26 27 28
000
FTUS41 KOKX 220548
TAFEWR
TAF
KEWR 220548Z 2206/2312 22007KT P6SM SCT040 SCT250
     FM220800 22006KT 6SM BR VCSH SCT015 SCT250
      TEMPO 2209/2213 BKN015
     FM221400 22009KT P6SM FEW025 BKN250
     FM221700 22014G23KT P6SM SCT050 BKN250
      TEMPO 2219/2223 23017G28KT
     FM230200 23014G24KT P6SM VCSH SCT015 BKN050 PROB30 2303/2307
      5SM TSRA BKN025 BKN050CB
     FM230700 25012G18KT P6SM VCSH SCT025 BKN040=

USA.gov is the U.S. government's official web portal to all federal, state and local government web resources and services.